WXM80 ListenWXM80 Stop

You find our weather info also at:

UK Metoffice

WeatherCloud

Weather Underground

Northeastern Weather Network

AWEKAS

Citizen Weather Observer Program (CWOP)

HAMweather, WeatherForYou, PWS Weather


Weather Underground History page Text

Daily Summary for January 5, 2018 Units:  English    Metric   Both
« Previous Day
Next Day »
Daily Weekly Monthly Yearly Custom
  High: Low: Average:
Temperature: TemperatureF °F 10.1 °F 13.1 °F
Dew Point: DewpointF °F -0.3 °F 6.9 °F
Humidity: Humidity % 61 % 76 %
Wind Speed: WindSpeedMPH mph 4.9 mph 10.3 mph
Wind Gust: WindSpeedGustMPH mph - -
Wind:- - West
Pressure: PressureIn in 29.49 in -
Precipitation: 0.00 in    
Historical Graphs
 
 
Tabular Data for January 5, 2018
Time Temperature Dew Point Pressure Wind Wind Speed Wind Gust Humidity Rainfall Rate (Hourly)
TemperatureF °F DewpointF °F PressureIn in Calm     Humidity % HourlyPrecipIn in
00:01 19.7 °F 17.8 °F 29.49 in NNW 9.6 mph 18.4 mph 92 % 0.00 in
00:02 19.7 °F 17.8 °F 29.49 in West 6.5 mph 19.6 mph 92 % 0.00 in
00:07 19.7 °F 17.8 °F 29.49 in WNW 9.0 mph 16.1 mph 92 % 0.00 in
00:12 19.7 °F 17.5 °F 29.49 in WNW 9.4 mph 18.4 mph 91 % 0.00 in
00:14 19.6 °F 17.4 °F 29.49 in SW 9.7 mph 16.1 mph 91 % 0.00 in
00:19 19.5 °F 17.3 °F 29.49 in WNW 10.9 mph 19.6 mph 91 % 0.00 in
00:20 19.4 °F 17.2 °F 29.49 in West 7.9 mph 21.9 mph 91 % 0.00 in
00:23 19.4 °F 17.2 °F 29.50 in West 14.0 mph 23.0 mph 91 % 0.00 in
00:26 19.3 °F 17.1 °F 29.50 in WNW 11.7 mph 21.9 mph 91 % 0.00 in
00:32 19.2 °F 17.0 °F 29.50 in NW 9.4 mph 19.6 mph 91 % 0.00 in
00:34 19.1 °F 16.9 °F 29.50 in West 8.6 mph 17.3 mph 91 % 0.00 in
00:39 19.0 °F 16.8 °F 29.51 in West 10.1 mph 17.3 mph 91 % 0.00 in
00:40 19.0 °F 16.8 °F 29.51 in WNW 10.0 mph 19.6 mph 91 % 0.00 in
00:45 18.9 °F 16.7 °F 29.51 in WNW 7.2 mph 18.4 mph 91 % 0.00 in
00:50 18.8 °F 16.6 °F 29.51 in WNW 17.1 mph 23.0 mph 91 % 0.00 in
00:56 18.6 °F 16.2 °F 29.51 in WNW 11.0 mph 21.9 mph 90 % 0.00 in
01:01 18.5 °F 16.1 °F 29.51 in WSW 11.3 mph 21.9 mph 90 % 0.00 in
01:07 18.4 °F 16.0 °F 29.51 in SW 12.3 mph 25.3 mph 90 % 0.00 in
01:13 18.4 °F 16.0 °F 29.52 in West 10.7 mph 23.0 mph 90 % 0.00 in
01:18 18.2 °F 15.8 °F 29.52 in WSW 7.4 mph 10.0 mph 90 % 0.00 in
01:22 18.2 °F 15.8 °F 29.52 in West 9.9 mph 22.0 mph 90 % 0.00 in
01:27 18.0 °F 15.6 °F 29.53 in WSW 10.0 mph 20.7 mph 90 % 0.00 in
01:32 17.9 °F 15.5 °F 29.52 in West 10.7 mph 17.3 mph 90 % 0.00 in
01:35 17.8 °F 15.1 °F 29.52 in WNW 12.2 mph 19.6 mph 89 % 0.00 in
01:40 17.7 °F 15.0 °F 29.53 in West 11.1 mph 21.9 mph 89 % 0.00 in
01:45 17.6 °F 14.9 °F 29.54 in NW 9.4 mph 18.0 mph 89 % 0.00 in
01:46 17.6 °F 14.9 °F 29.53 in West 11.5 mph 18.4 mph 89 % 0.00 in
01:47 17.5 °F 14.8 °F 29.53 in WNW 7.7 mph 18.4 mph 89 % 0.00 in
01:52 17.5 °F 14.8 °F 29.54 in NW 7.5 mph 26.0 mph 89 % 0.00 in
01:57 17.4 °F 14.7 °F 29.53 in West 15.1 mph 26.5 mph 89 % 0.00 in
02:02 17.2 °F 14.5 °F 29.54 in WNW 14.8 mph 27.6 mph 89 % 0.00 in
02:05 17.1 °F 14.4 °F 29.54 in West 8.9 mph 18.4 mph 89 % 0.00 in
02:11 17.0 °F 14.3 °F 29.54 in West 10.0 mph 24.0 mph 89 % 0.00 in
02:16 16.8 °F 14.1 °F 29.54 in WSW 10.0 mph 17.3 mph 89 % 0.00 in
02:19 16.7 °F 13.8 °F 29.55 in NW 17.7 mph 23.0 mph 88 % 0.00 in
02:24 16.5 °F 13.8 °F 29.55 in NW 9.9 mph 18.4 mph 89 % 0.00 in
02:29 16.4 °F 13.7 °F 29.55 in West 11.3 mph 22.0 mph 89 % 0.00 in
02:34 16.3 °F 13.4 °F 29.55 in SW 9.7 mph 19.6 mph 88 % 0.00 in
02:39 16.2 °F 13.3 °F 29.55 in NNW 13.3 mph 25.3 mph 88 % 0.00 in
02:44 16.0 °F 13.1 °F 29.57 in SW 10.4 mph 20.7 mph 88 % 0.00 in
02:48 15.9 °F 13.0 °F 29.57 in West 13.4 mph 24.2 mph 88 % 0.00 in
02:53 15.9 °F 13.0 °F 29.56 in NW 11.3 mph 27.6 mph 88 % 0.00 in
02:56 15.8 °F 12.9 °F 29.56 in West 8.3 mph 18.4 mph 88 % 0.00 in
02:57 15.8 °F 12.9 °F 29.57 in West 9.3 mph 20.7 mph 88 % 0.00 in
03:02 15.6 °F 12.7 °F 29.57 in NW 11.1 mph 24.0 mph 88 % 0.00 in
03:07 15.5 °F 12.6 °F 29.57 in West 7.2 mph 19.6 mph 88 % 0.00 in
03:09 15.4 °F 12.5 °F 29.57 in WNW 15.3 mph 26.5 mph 88 % 0.00 in
03:14 15.3 °F 12.4 °F 29.57 in West 14.7 mph 24.2 mph 88 % 0.00 in
03:15 15.3 °F 12.4 °F 29.57 in WNW 10.5 mph 19.6 mph 88 % 0.00 in
03:17 15.3 °F 12.4 °F 29.57 in WSW 12.7 mph 21.9 mph 88 % 0.00 in
03:22 15.1 °F 12.2 °F 29.58 in West 12.0 mph 25.3 mph 88 % 0.00 in
03:27 15.0 °F 12.1 °F 29.57 in WNW 8.4 mph 23.0 mph 88 % 0.00 in
03:30 15.0 °F 12.1 °F 29.57 in West 10.8 mph 19.0 mph 88 % 0.00 in
03:35 14.9 °F 12.0 °F 29.57 in NW 9.0 mph 9.2 mph 88 % 0.00 in
03:39 14.9 °F 12.0 °F 29.58 in WNW 8.5 mph 16.1 mph 88 % 0.00 in
03:44 14.9 °F 12.0 °F 29.59 in WNW 8.7 mph 13.0 mph 88 % 0.00 in
03:46 14.9 °F 12.0 °F 29.58 in West 11.9 mph 21.9 mph 88 % 0.00 in
03:51 14.7 °F 11.5 °F 29.59 in SSW 11.4 mph 20.7 mph 87 % 0.00 in
03:56 14.5 °F 11.6 °F 29.59 in WNW 12.5 mph 24.0 mph 88 % 0.00 in
04:01 14.4 °F 11.2 °F 29.59 in West 6.2 mph 18.4 mph 87 % 0.00 in
04:06 14.3 °F 11.1 °F 29.60 in WSW 8.9 mph 19.6 mph 87 % 0.00 in
04:07 14.3 °F 11.1 °F 29.60 in SW 11.1 mph 18.4 mph 87 % 0.00 in
04:12 14.1 °F 10.9 °F 29.60 in WNW 12.6 mph 17.3 mph 87 % 0.00 in
04:17 14.0 °F 10.8 °F 29.61 in WNW 10.0 mph 12.7 mph 87 % 0.00 in
04:22 13.7 °F 10.5 °F 29.61 in WNW 7.2 mph 21.9 mph 87 % 0.00 in
04:28 13.6 °F 10.5 °F 29.61 in WNW 12.4 mph 17.3 mph 87 % 0.00 in
04:32 13.5 °F 10.1 °F 29.62 in SW 10.2 mph 26.5 mph 86 % 0.00 in
04:37 13.4 °F 10.0 °F 29.62 in NW 11.6 mph 23.0 mph 86 % 0.00 in
04:42 13.2 °F 9.8 °F 29.61 in WNW 13.8 mph 21.9 mph 86 % 0.00 in
04:47 13.1 °F 9.7 °F 29.62 in WNW 8.4 mph 13.0 mph 86 % 0.00 in
04:50 13.0 °F 9.6 °F 29.62 in WSW 4.9 mph 19.6 mph 86 % 0.00 in
04:56 12.9 °F 9.8 °F 29.62 in West 8.0 mph 32.0 mph 87 % 0.00 in
04:57 12.9 °F 9.5 °F 29.62 in WSW 7.3 mph 32.2 mph 86 % 0.00 in
05:02 12.8 °F 9.4 °F 29.63 in West 6.8 mph 13.8 mph 86 % 0.00 in
05:03 12.8 °F 9.4 °F 29.63 in West 8.8 mph 15.0 mph 86 % 0.00 in
05:08 12.7 °F 9.3 °F 29.63 in NNW 13.9 mph 25.3 mph 86 % 0.00 in
05:13 12.7 °F 9.3 °F 29.63 in SW 7.5 mph 17.3 mph 86 % 0.00 in
05:18 12.6 °F 9.2 °F 29.64 in WNW 5.8 mph 23.0 mph 86 % 0.00 in
05:23 12.6 °F 9.2 °F 29.64 in West 11.7 mph 18.4 mph 86 % 0.00 in
05:28 12.4 °F 8.7 °F 29.64 in SW 7.9 mph 12.7 mph 85 % 0.00 in
05:34 12.3 °F 8.7 °F 29.65 in WNW 12.3 mph 21.0 mph 85 % 0.00 in
05:38 12.2 °F 8.6 °F 29.65 in SW 6.7 mph 15.0 mph 85 % 0.00 in
05:43 12.1 °F 8.5 °F 29.65 in West 7.2 mph 17.3 mph 85 % 0.00 in
05:49 11.9 °F 8.3 °F 29.66 in WSW 8.4 mph 17.0 mph 85 % 0.00 in
05:50 11.9 °F 8.3 °F 29.66 in NW 12.2 mph 16.1 mph 85 % 0.00 in
05:56 11.8 °F 8.2 °F 29.66 in WNW 10.0 mph 26.0 mph 85 % 0.00 in
05:59 11.7 °F 8.1 °F 29.66 in WNW 12.4 mph 24.2 mph 85 % 0.00 in
06:04 11.7 °F 8.1 °F 29.67 in NW 9.5 mph 21.9 mph 85 % 0.00 in
06:09 11.5 °F 7.9 °F 29.67 in WNW 14.0 mph 28.8 mph 85 % 0.00 in
06:14 11.4 °F 7.8 °F 29.67 in WNW 7.8 mph 16.1 mph 85 % 0.00 in
06:19 11.4 °F 8.0 °F 29.67 in West 7.7 mph 19.6 mph 86 % 0.00 in
06:24 11.3 °F 7.7 °F 29.68 in NW 7.3 mph 15.0 mph 85 % 0.00 in
06:28 11.2 °F 7.6 °F 29.68 in West 8.6 mph 17.0 mph 85 % 0.00 in
06:33 11.0 °F 7.4 °F 29.69 in WSW 11.1 mph 21.9 mph 85 % 0.00 in
06:34 11.0 °F 7.4 °F 29.68 in West 10.9 mph 18.0 mph 85 % 0.00 in
06:39 11.0 °F 7.4 °F 29.68 in WNW 14.8 mph 27.6 mph 85 % 0.00 in
06:43 10.9 °F 7.3 °F 29.69 in NW 11.3 mph 26.5 mph 85 % 0.00 in
06:47 10.9 °F 7.3 °F 29.69 in WSW 5.5 mph 26.5 mph 85 % 0.00 in
06:49 10.9 °F 7.3 °F 29.69 in WSW 8.7 mph 18.4 mph 85 % 0.00 in
06:54 10.9 °F 7.3 °F 29.69 in WSW 14.2 mph 21.0 mph 85 % 0.00 in
06:55 10.9 °F 7.3 °F 29.69 in West 10.9 mph 24.2 mph 85 % 0.00 in
07:00 10.8 °F 7.2 °F 29.70 in WNW 12.4 mph 18.4 mph 85 % 0.00 in
07:02 10.8 °F 7.2 °F 29.69 in West 12.1 mph 21.9 mph 85 % 0.00 in
07:07 10.7 °F 7.1 °F 29.70 in WSW 10.0 mph 20.7 mph 85 % 0.00 in
07:12 10.6 °F 7.0 °F 29.70 in NW 10.8 mph 19.6 mph 85 % 0.00 in
07:17 10.6 °F 7.0 °F 29.70 in West 11.1 mph 19.6 mph 85 % 0.00 in
07:20 10.5 °F 6.6 °F 29.71 in West 9.6 mph 25.3 mph 84 % 0.00 in
07:25 10.5 °F 6.9 °F 29.71 in West 6.7 mph 11.5 mph 85 % 0.00 in
07:26 10.5 °F 6.9 °F 29.71 in West 10.1 mph 15.0 mph 85 % 0.00 in
07:31 10.4 °F 6.5 °F 29.71 in NNW 8.4 mph 21.9 mph 84 % 0.00 in
07:36 10.3 °F 6.4 °F 29.71 in WSW 9.7 mph 15.0 mph 84 % 0.00 in
07:41 10.2 °F 6.3 °F 29.71 in WSW 8.2 mph 16.1 mph 84 % 0.00 in
07:47 10.2 °F 6.1 °F 29.72 in NW 10.2 mph 19.6 mph 83 % 0.00 in
07:52 10.2 °F 6.1 °F 29.72 in SW 12.4 mph 21.0 mph 83 % 0.00 in
07:53 10.2 °F 6.1 °F 29.72 in West 10.2 mph 20.7 mph 83 % 0.00 in
07:58 10.1 °F 6.2 °F 29.72 in West 9.4 mph 16.1 mph 84 % 0.00 in
08:04 10.1 °F 6.2 °F 29.73 in West 10.6 mph 18.4 mph 84 % 0.00 in
08:08 10.1 °F 6.2 °F 29.72 in WNW 10.3 mph 18.4 mph 84 % 0.00 in
08:14 10.1 °F 6.2 °F 29.73 in NW 6.0 mph 11.5 mph 84 % 0.00 in
08:19 10.1 °F 6.2 °F 29.73 in West 9.0 mph 21.0 mph 84 % 0.00 in
08:24 10.2 °F 6.3 °F 29.73 in West 11.6 mph 27.6 mph 84 % 0.00 in
08:29 10.1 °F 6.2 °F 29.74 in West 11.7 mph 20.0 mph 84 % 0.00 in
08:34 10.2 °F 6.1 °F 29.74 in WSW 8.5 mph 17.3 mph 83 % 0.00 in
08:40 10.2 °F 6.1 °F 29.74 in WNW 10.3 mph 21.9 mph 83 % 0.00 in
08:43 10.1 °F 6.0 °F 29.73 in West 7.3 mph 16.1 mph 83 % 0.00 in
08:47 10.2 °F 6.1 °F 29.73 in WNW 9.4 mph 19.6 mph 83 % 0.00 in
08:52 10.2 °F 6.1 °F 29.74 in WSW 10.7 mph 21.9 mph 83 % 0.00 in
08:58 10.2 °F 6.1 °F 29.74 in West 8.7 mph 22.0 mph 83 % 0.00 in
09:03 10.3 °F 6.2 °F 29.75 in WNW 7.0 mph 15.0 mph 83 % 0.00 in
09:08 10.3 °F 6.2 °F 29.75 in West 14.4 mph 24.0 mph 83 % 0.00 in
09:09 10.3 °F 6.2 °F 29.74 in West 15.7 mph 19.6 mph 83 % 0.00 in
09:14 10.4 °F 6.0 °F 29.75 in WSW 9.1 mph 19.6 mph 82 % 0.00 in
09:19 10.7 °F 6.3 °F 29.75 in WNW 12.8 mph 19.6 mph 82 % 0.00 in
09:24 10.8 °F 6.7 °F 29.75 in WSW 6.6 mph 15.0 mph 83 % 0.00 in
09:26 10.8 °F 6.7 °F 29.75 in WNW 9.6 mph 26.5 mph 83 % 0.00 in
09:31 10.9 °F 6.5 °F 29.76 in West 10.0 mph 23.0 mph 82 % 0.00 in
09:34 10.9 °F 6.5 °F 29.76 in WSW 13.8 mph 23.0 mph 82 % 0.00 in
09:39 10.9 °F 6.2 °F 29.77 in NW 12.9 mph 25.3 mph 81 % 0.00 in
09:44 11.0 °F 6.6 °F 29.77 in WNW 11.0 mph 19.6 mph 82 % 0.00 in
09:49 11.2 °F 6.8 °F 29.77 in NNW 11.5 mph 26.5 mph 82 % 0.00 in
09:54 11.3 °F 6.9 °F 29.78 in SW 11.3 mph 21.9 mph 82 % 0.00 in
09:59 11.3 °F 6.9 °F 29.77 in West 11.2 mph 25.3 mph 82 % 0.00 in
10:01 11.3 °F 6.9 °F 29.78 in WSW 11.9 mph 26.5 mph 82 % 0.00 in
10:06 11.4 °F 7.0 °F 29.77 in WNW 9.5 mph 14.0 mph 82 % 0.00 in
10:11 11.6 °F 7.2 °F 29.77 in NNW 8.0 mph 19.6 mph 82 % 0.00 in
10:16 11.6 °F 6.9 °F 29.77 in NW 11.9 mph 21.9 mph 81 % 0.00 in
10:17 11.6 °F 6.6 °F 29.77 in West 8.2 mph 21.9 mph 80 % 0.00 in
10:22 11.7 °F 6.7 °F 29.77 in SW 10.7 mph 24.2 mph 80 % 0.00 in
10:27 11.8 °F 6.8 °F 29.78 in WSW 10.6 mph 16.1 mph 80 % 0.00 in
10:32 11.8 °F 7.1 °F 29.78 in West 12.8 mph 19.6 mph 81 % 0.00 in
10:37 11.9 °F 7.2 °F 29.78 in West 11.8 mph 18.0 mph 81 % 0.00 in
10:42 11.9 °F 6.9 °F 29.78 in SW 11.0 mph 25.3 mph 80 % 0.00 in
10:48 11.9 °F 6.9 °F 29.78 in SW 6.3 mph 12.7 mph 80 % 0.00 in
10:50 11.9 °F 6.9 °F 29.78 in WSW 10.8 mph 20.0 mph 80 % 0.00 in
10:55 11.9 °F 7.2 °F 29.78 in West 11.6 mph 19.6 mph 81 % 0.00 in
11:00 12.0 °F 7.0 °F 29.78 in WNW 6.6 mph 15.0 mph 80 % 0.00 in
11:04 12.1 °F 7.4 °F 29.78 in WSW 12.1 mph 17.3 mph 81 % 0.00 in
11:09 12.2 °F 7.2 °F 29.78 in NW 9.5 mph 20.7 mph 80 % 0.00 in
11:14 12.4 °F 7.7 °F 29.78 in NW 8.5 mph 20.0 mph 81 % 0.00 in
11:19 12.5 °F 7.5 °F 29.78 in West 6.1 mph 14.0 mph 80 % 0.00 in
11:24 12.5 °F 7.2 °F 29.78 in NNW 16.4 mph 20.7 mph 79 % 0.00 in
11:29 12.4 °F 7.1 °F 29.77 in WSW 11.0 mph 18.0 mph 79 % 0.00 in
11:34 12.4 °F 7.1 °F 29.77 in West 12.6 mph 23.0 mph 79 % 0.00 in
11:40 12.4 °F 6.8 °F 29.77 in WSW 10.6 mph 16.1 mph 78 % 0.00 in
11:45 12.3 °F 6.5 °F 29.77 in WSW 7.8 mph 19.6 mph 77 % 0.00 in
11:50 12.3 °F 6.5 °F 29.78 in WNW 10.0 mph 20.7 mph 77 % 0.00 in
11:54 12.3 °F 6.7 °F 29.77 in NW 10.8 mph 19.6 mph 78 % 0.00 in
11:59 12.5 °F 7.2 °F 29.77 in West 11.4 mph 14.0 mph 79 % 0.00 in
12:05 12.8 °F 7.5 °F 29.77 in West 12.2 mph 18.4 mph 79 % 0.00 in
12:09 13.0 °F 7.1 °F 29.78 in West 7.0 mph 18.0 mph 77 % 0.00 in
12:14 13.0 °F 6.9 °F 29.78 in NNW 9.2 mph 18.4 mph 76 % 0.00 in
12:17 13.0 °F 7.1 °F 29.77 in West 13.9 mph 30.0 mph 77 % 0.00 in
12:22 13.1 °F 7.0 °F 29.78 in WNW 13.6 mph 25.3 mph 76 % 0.00 in
12:27 13.1 °F 7.0 °F 29.77 in West 13.6 mph 20.7 mph 76 % 0.00 in
12:32 13.0 °F 6.9 °F 29.78 in WNW 8.6 mph 16.1 mph 76 % 0.00 in
12:37 13.2 °F 6.8 °F 29.78 in WSW 12.0 mph 21.9 mph 75 % 0.00 in
12:43 13.4 °F 7.0 °F 29.77 in West 10.0 mph 17.3 mph 75 % 0.00 in
12:46 13.5 °F 7.0 °F 29.77 in WNW 12.8 mph 29.0 mph 75 % 0.00 in
12:50 13.6 °F 6.8 °F 29.77 in NNW 11.5 mph 23.0 mph 74 % 0.00 in
12:53 13.7 °F 6.6 °F 29.77 in West 8.6 mph 20.7 mph 73 % 0.00 in
12:58 13.9 °F 7.1 °F 29.78 in WSW 7.1 mph 18.4 mph 74 % 0.00 in
13:03 13.9 °F 6.8 °F 29.78 in WNW 14.6 mph 20.7 mph 73 % 0.00 in
13:07 13.9 °F 7.1 °F 29.78 in SW 12.2 mph 27.6 mph 74 % 0.00 in
13:12 14.0 °F 6.9 °F 29.78 in NW 12.8 mph 20.0 mph 73 % 0.00 in
13:13 14.0 °F 6.9 °F 29.78 in WNW 10.4 mph 19.6 mph 73 % 0.00 in
13:18 14.1 °F 7.0 °F 29.78 in West 12.7 mph 20.7 mph 73 % 0.00 in
13:21 14.2 °F 6.8 °F 29.78 in NW 14.1 mph 26.5 mph 72 % 0.00 in
13:26 14.1 °F 6.7 °F 29.78 in West 11.1 mph 20.0 mph 72 % 0.00 in
13:27 14.1 °F 6.7 °F 29.78 in NW 11.7 mph 19.6 mph 72 % 0.00 in
13:32 14.3 °F 7.2 °F 29.78 in WNW 15.4 mph 21.9 mph 73 % 0.00 in
13:37 14.3 °F 6.6 °F 29.79 in SW 11.0 mph 19.6 mph 71 % 0.00 in
13:42 14.4 °F 7.3 °F 29.78 in West 10.9 mph 16.1 mph 73 % 0.00 in
13:48 14.6 °F 7.2 °F 29.78 in SW 10.6 mph 23.0 mph 72 % 0.00 in
13:49 14.6 °F 7.2 °F 29.79 in WNW 13.0 mph 19.6 mph 72 % 0.00 in
13:50 14.5 °F 6.8 °F 29.79 in NW 10.9 mph 18.4 mph 71 % 0.00 in
13:55 14.4 °F 6.7 °F 29.79 in NW 10.2 mph 27.6 mph 71 % 0.00 in
14:00 14.4 °F 6.1 °F 29.80 in WNW 10.8 mph 21.0 mph 69 % 0.00 in
14:04 14.4 °F 6.7 °F 29.80 in NNW 12.3 mph 19.6 mph 71 % 0.00 in
14:09 14.5 °F 6.8 °F 29.80 in WNW 13.0 mph 24.2 mph 71 % 0.00 in
14:10 14.5 °F 6.8 °F 29.80 in WSW 7.1 mph 19.6 mph 71 % 0.00 in
14:11 14.5 °F 6.8 °F 29.80 in West 6.0 mph 24.0 mph 71 % 0.00 in
14:15 14.6 °F 7.5 °F 29.80 in WNW 6.4 mph 16.1 mph 73 % 0.00 in
14:16 14.6 °F 7.2 °F 29.80 in WSW 9.0 mph 15.0 mph 72 % 0.00 in
14:20 14.6 °F 6.6 °F 29.80 in WNW 9.0 mph 14.0 mph 70 % 0.00 in
14:25 14.5 °F 6.2 °F 29.81 in WNW 13.7 mph 25.3 mph 69 % 0.00 in
14:30 14.1 °F 5.8 °F 29.81 in SW 10.6 mph 20.0 mph 69 % 0.00 in
14:36 14.0 °F 5.4 °F 29.81 in North 8.7 mph 16.1 mph 68 % 0.00 in
14:41 13.9 °F 5.9 °F 29.81 in West 9.0 mph 24.0 mph 70 % 0.00 in
14:42 13.9 °F 5.6 °F 29.81 in WSW 9.5 mph 17.3 mph 69 % 0.00 in
14:47 13.7 °F 5.4 °F 29.81 in WSW 8.8 mph 16.1 mph 69 % 0.00 in
14:48 13.6 °F 5.3 °F 29.80 in WNW 9.8 mph 19.0 mph 69 % 0.00 in
14:53 13.5 °F 5.2 °F 29.82 in SW 11.2 mph 24.2 mph 69 % 0.00 in
14:58 13.4 °F 5.1 °F 29.82 in NW 14.7 mph 26.0 mph 69 % 0.00 in
15:03 13.4 °F 5.7 °F 29.82 in West 9.9 mph 19.6 mph 71 % 0.00 in
15:08 13.5 °F 4.9 °F 29.82 in North 9.8 mph 18.4 mph 68 % 0.00 in
15:09 13.5 °F 4.9 °F 29.82 in West 6.4 mph 17.0 mph 68 % 0.00 in
15:12 13.5 °F 5.2 °F 29.82 in NNW 10.4 mph 23.0 mph 69 % 0.00 in
15:17 13.4 °F 4.8 °F 29.82 in NW 11.3 mph 26.5 mph 68 % 0.00 in
15:22 13.4 °F 4.8 °F 29.82 in West 6.7 mph 18.4 mph 68 % 0.00 in
15:27 13.4 °F 4.8 °F 29.83 in West 11.6 mph 24.2 mph 68 % 0.00 in
15:32 13.4 °F 4.5 °F 29.83 in WNW 13.0 mph 26.5 mph 67 % 0.00 in
15:34 13.4 °F 4.8 °F 29.83 in WNW 9.4 mph 17.3 mph 68 % 0.00 in
15:39 13.3 °F 4.4 °F 29.84 in WNW 6.2 mph 27.6 mph 67 % 0.00 in
15:44 13.3 °F 4.7 °F 29.84 in NW 12.1 mph 19.6 mph 68 % 0.00 in
15:45 13.4 °F 4.8 °F 29.85 in WNW 9.3 mph 17.3 mph 68 % 0.00 in
15:50 13.4 °F 4.8 °F 29.84 in WSW 5.3 mph 10.0 mph 68 % 0.00 in
15:52 13.4 °F 4.8 °F 29.84 in WNW 8.7 mph 18.4 mph 68 % 0.00 in
15:57 13.4 °F 4.5 °F 29.84 in WNW 10.8 mph 21.9 mph 67 % 0.00 in
16:03 13.4 °F 4.5 °F 29.85 in NW 12.0 mph 13.8 mph 67 % 0.00 in
16:08 13.3 °F 4.1 °F 29.85 in WSW 7.9 mph 17.3 mph 66 % 0.00 in
16:11 13.2 °F 4.3 °F 29.85 in West 5.1 mph 12.7 mph 67 % 0.00 in
16:17 13.2 °F 4.3 °F 29.85 in NNW 9.0 mph 19.6 mph 67 % 0.00 in
16:22 13.3 °F 3.7 °F 29.85 in SW 10.2 mph 24.2 mph 65 % 0.00 in
16:27 13.2 °F 3.6 °F 29.86 in WNW 14.0 mph 25.3 mph 65 % 0.00 in
16:32 13.2 °F 4.0 °F 29.86 in WSW 11.2 mph 13.8 mph 66 % 0.00 in
16:37 13.2 °F 4.0 °F 29.86 in SW 14.3 mph 28.8 mph 66 % 0.00 in
16:42 13.1 °F 3.2 °F 29.85 in WSW 12.3 mph 26.5 mph 64 % 0.00 in
16:47 13.0 °F 3.4 °F 29.86 in West 13.1 mph 31.1 mph 65 % 0.00 in
16:50 13.0 °F 4.1 °F 29.86 in WSW 8.9 mph 20.7 mph 67 % 0.00 in
16:55 13.0 °F 3.8 °F 29.87 in SW 9.6 mph 17.0 mph 66 % 0.00 in
16:59 13.0 °F 3.8 °F 29.87 in NW 10.4 mph 17.0 mph 66 % 0.00 in
17:04 13.1 °F 4.2 °F 29.87 in SSE 12.1 mph 21.9 mph 67 % 0.00 in
17:09 13.1 °F 3.9 °F 29.87 in WNW 10.3 mph 19.6 mph 66 % 0.00 in
17:14 13.1 °F 3.5 °F 29.88 in WNW 12.6 mph 21.0 mph 65 % 0.00 in
17:19 13.2 °F 4.0 °F 29.89 in WSW 16.1 mph 26.5 mph 66 % 0.00 in
17:22 13.2 °F 4.0 °F 29.88 in West 10.2 mph 27.6 mph 66 % 0.00 in
17:26 13.3 °F 4.1 °F 29.88 in WNW 15.0 mph 28.0 mph 66 % 0.00 in
17:31 13.3 °F 4.4 °F 29.89 in West 10.2 mph 26.5 mph 67 % 0.00 in
17:36 13.3 °F 4.4 °F 29.89 in NNW 12.0 mph 19.6 mph 67 % 0.00 in
17:40 13.3 °F 3.7 °F 29.89 in NNW 15.1 mph 24.2 mph 65 % 0.00 in
17:47 13.3 °F 3.0 °F 29.90 in WNW 14.7 mph 24.2 mph 63 % 0.00 in
17:50 13.2 °F 3.6 °F 29.90 in WNW 5.8 mph 13.8 mph 65 % 0.00 in
17:55 13.2 °F 3.3 °F 29.90 in WSW 10.7 mph 23.0 mph 64 % 0.00 in
17:56 13.2 °F 3.3 °F 29.90 in WNW 12.0 mph 23.0 mph 64 % 0.00 in
18:01 13.2 °F 3.3 °F 29.91 in West 6.2 mph 21.9 mph 64 % 0.00 in
18:06 13.1 °F 2.9 °F 29.91 in WSW 11.6 mph 21.9 mph 63 % 0.00 in
18:10 13.0 °F 2.4 °F 29.91 in WNW 9.8 mph 19.6 mph 62 % 0.00 in
18:15 13.0 °F 2.4 °F 29.91 in NW 8.4 mph 16.1 mph 62 % 0.00 in
18:21 13.0 °F 3.1 °F 29.92 in WNW 9.2 mph 19.6 mph 64 % 0.00 in
18:25 13.0 °F 3.4 °F 29.92 in WNW 8.3 mph 21.9 mph 65 % 0.00 in
18:31 13.1 °F 3.9 °F 29.92 in WNW 7.0 mph 18.0 mph 66 % 0.00 in
18:36 13.1 °F 3.2 °F 29.92 in WNW 8.9 mph 24.2 mph 64 % 0.00 in
18:41 13.0 °F 3.1 °F 29.93 in NW 11.4 mph 23.0 mph 64 % 0.00 in
18:46 13.1 °F 3.2 °F 29.93 in WNW 5.4 mph 11.5 mph 64 % 0.00 in
18:51 13.0 °F 3.1 °F 29.94 in WNW 10.2 mph 19.6 mph 64 % 0.00 in
18:54 13.0 °F 2.8 °F 29.94 in WSW 14.2 mph 19.6 mph 63 % 0.00 in
18:59 12.9 °F 2.7 °F 29.94 in WNW 11.3 mph 23.0 mph 63 % 0.00 in
19:04 12.8 °F 2.6 °F 29.94 in SW 11.2 mph 19.6 mph 63 % 0.00 in
19:07 12.7 °F 2.5 °F 29.94 in NW 15.3 mph 24.2 mph 63 % 0.00 in
19:12 12.7 °F 2.5 °F 29.94 in West 10.0 mph 19.6 mph 63 % 0.00 in
19:13 12.7 °F 2.5 °F 29.94 in NW 9.9 mph 19.6 mph 63 % 0.00 in
19:18 12.7 °F 2.5 °F 29.94 in WNW 10.5 mph 19.6 mph 63 % 0.00 in
19:23 12.7 °F 2.8 °F 29.94 in West 9.6 mph 21.9 mph 64 % 0.00 in
19:26 12.8 °F 3.2 °F 29.95 in SSW 8.9 mph 20.0 mph 65 % 0.00 in
19:31 12.8 °F 2.6 °F 29.95 in SW 10.4 mph 19.6 mph 63 % 0.00 in
19:34 12.8 °F 2.9 °F 29.95 in West 7.9 mph 19.6 mph 64 % 0.00 in
19:39 12.7 °F 2.8 °F 29.95 in NNW 11.8 mph 18.4 mph 64 % 0.00 in
19:42 12.7 °F 2.8 °F 29.95 in WSW 10.8 mph 23.0 mph 64 % 0.00 in
19:47 12.7 °F 2.8 °F 29.95 in WSW 9.2 mph 28.8 mph 64 % 0.00 in
19:49 12.6 °F 2.4 °F 29.95 in West 8.2 mph 16.1 mph 63 % 0.00 in
19:55 12.6 °F 3.1 °F 29.95 in West 6.7 mph 16.1 mph 65 % 0.00 in
20:00 12.5 °F 3.0 °F 29.96 in WNW 8.4 mph 19.6 mph 65 % 0.00 in
20:05 12.5 °F 3.0 °F 29.96 in WNW 10.7 mph 18.4 mph 65 % 0.00 in
20:07 12.5 °F 3.3 °F 29.96 in SW 10.6 mph 21.0 mph 66 % 0.00 in
20:12 12.5 °F 2.6 °F 29.96 in SW 10.9 mph 18.4 mph 64 % 0.00 in
20:13 12.4 °F 2.5 °F 29.97 in NW 12.4 mph 19.6 mph 64 % 0.00 in
20:18 12.3 °F 2.4 °F 29.98 in NW 17.7 mph 31.1 mph 64 % 0.00 in
20:26 12.2 °F 1.7 °F 29.97 in NW 10.1 mph 20.7 mph 62 % 0.00 in
20:27 12.2 °F 2.0 °F 29.97 in NW 10.2 mph 21.9 mph 63 % 0.00 in
20:32 12.2 °F 2.0 °F 29.96 in WNW 10.6 mph 19.6 mph 63 % 0.00 in
20:34 12.2 °F 1.7 °F 29.97 in WNW 10.4 mph 18.4 mph 62 % 0.00 in
20:39 12.1 °F 1.6 °F 29.97 in NNW 8.0 mph 25.3 mph 62 % 0.00 in
20:40 12.1 °F 1.6 °F 29.97 in SW 7.0 mph 25.3 mph 62 % 0.00 in
20:45 12.1 °F 1.9 °F 29.97 in SW 11.8 mph 23.0 mph 63 % 0.00 in
20:50 12.0 °F 1.8 °F 29.98 in West 9.2 mph 20.7 mph 63 % 0.00 in
20:55 12.0 °F 1.5 °F 29.98 in NW 11.9 mph 25.3 mph 62 % 0.00 in
20:59 12.1 °F 1.9 °F 29.98 in WSW 5.2 mph 10.4 mph 63 % 0.00 in
21:04 12.0 °F 1.8 °F 29.99 in West 14.2 mph 25.3 mph 63 % 0.00 in
21:09 12.0 °F 1.8 °F 29.99 in West 10.9 mph 21.9 mph 63 % 0.00 in
21:10 12.0 °F 2.1 °F 29.99 in WSW 11.1 mph 15.0 mph 64 % 0.00 in
21:15 12.0 °F 2.5 °F 29.99 in WNW 10.3 mph 19.6 mph 65 % 0.00 in
21:20 12.0 °F 2.1 °F 29.99 in WSW 11.7 mph 18.4 mph 64 % 0.00 in
21:25 11.9 °F 1.7 °F 29.99 in West 11.2 mph 19.6 mph 63 % 0.00 in
21:30 11.8 °F 1.6 °F 30.00 in NW 7.0 mph 18.0 mph 63 % 0.00 in
21:31 11.8 °F 1.6 °F 29.99 in West 9.2 mph 18.4 mph 63 % 0.00 in
21:36 11.7 °F 1.5 °F 30.00 in WNW 14.3 mph 26.5 mph 63 % 0.00 in
21:41 11.6 °F 0.7 °F 29.99 in WNW 10.8 mph 19.6 mph 61 % 0.00 in
21:46 11.5 °F 1.0 °F 30.00 in WNW 10.1 mph 19.6 mph 62 % 0.00 in
21:49 11.5 °F 1.0 °F 30.00 in WSW 6.8 mph 19.6 mph 62 % 0.00 in
21:54 11.5 °F 1.7 °F 30.00 in West 5.1 mph 15.0 mph 64 % 0.00 in
21:59 11.4 °F 1.2 °F 30.00 in SW 11.8 mph 16.1 mph 63 % 0.00 in
22:04 11.4 °F 1.2 °F 30.01 in NW 12.6 mph 19.6 mph 63 % 0.00 in
22:09 11.3 °F 1.1 °F 30.00 in NW 12.6 mph 22.0 mph 63 % 0.00 in
22:14 11.3 °F 1.1 °F 30.00 in WNW 5.6 mph 16.1 mph 63 % 0.00 in
22:17 11.3 °F 1.5 °F 30.01 in WSW 9.6 mph 18.0 mph 64 % 0.00 in
22:22 11.2 °F 1.0 °F 30.01 in WNW 8.3 mph 20.0 mph 63 % 0.00 in
22:27 11.1 °F 0.6 °F 30.01 in WNW 9.5 mph 15.0 mph 62 % 0.00 in
22:32 11.0 °F 0.5 °F 30.01 in WNW 7.4 mph 15.0 mph 62 % 0.00 in
22:37 10.8 °F 0.7 °F 30.01 in West 6.7 mph 16.1 mph 63 % 0.00 in
22:41 10.8 °F 1.0 °F 30.01 in WNW 13.9 mph 20.7 mph 64 % 0.00 in
22:51 10.6 °F -0.2 °F 30.02 in NW 12.2 mph 19.6 mph 61 % 0.00 in
22:56 10.6 °F -0.2 °F 30.02 in West 6.7 mph 15.0 mph 61 % 0.00 in
23:01 10.6 °F 0.1 °F 30.02 in West 7.0 mph 20.7 mph 62 % 0.00 in
23:06 10.6 °F 0.1 °F 30.02 in SW 9.3 mph 13.8 mph 62 % 0.00 in
23:11 10.5 °F -0.3 °F 30.02 in NW 9.2 mph 19.6 mph 61 % 0.00 in
23:16 10.6 °F 0.1 °F 30.02 in West 7.8 mph 19.0 mph 62 % 0.00 in
23:22 10.5 °F 0.0 °F 30.02 in WSW 7.6 mph 15.0 mph 62 % 0.00 in
23:27 10.5 °F 0.0 °F 30.03 in SW 7.5 mph 18.4 mph 62 % 0.00 in
23:32 10.5 °F -0.3 °F 30.02 in SW 8.8 mph 13.8 mph 61 % 0.00 in
23:37 10.4 °F -0.1 °F 30.02 in West 9.1 mph 19.6 mph 62 % 0.00 in
23:42 10.4 °F -0.1 °F 30.03 in WSW 13.1 mph 26.0 mph 62 % 0.00 in
23:45 10.3 °F -0.2 °F 30.03 in West 7.9 mph 11.5 mph 62 % 0.00 in
23:50 10.3 °F 0.2 °F 30.03 in WSW 4.9 mph 15.0 mph 63 % 0.00 in
23:55 10.3 °F 0.2 °F 30.03 in WNW 12.2 mph 21.9 mph 63 % 0.00 in
Crab Meadow Weather
Compliments of Weather Underground - 3.25 mb

Script developed by  Jim McMurry - jmcmurry@mwt.net Adapted for the template by  Wim van der Kuil - Leuven-Template.eu

Weather Terms: Winter Storm Warning - Hazardous winter weather conditions that pose a threat to life and/or property are occurring, imminent or likely. The generic term, winter storm warning, is used for a combination of two or more of the following winter weather events; heavy snow, freezing rain, sleet and strong winds.